sensor_id;sensor_type;location;lat;lon;timestamp;P1;durP1;ratioP1;P2;durP2;ratioP2
15192;SDS011;7697;51.630;7.484;2022-12-20T00:01:47;3.50;;;2.75;;
15192;SDS011;7697;51.630;7.484;2022-12-20T00:06:49;3.85;;;2.47;;
15192;SDS011;7697;51.630;7.484;2022-12-20T00:11:52;4.90;;;2.67;;
15192;SDS011;7697;51.630;7.484;2022-12-20T00:16:54;4.00;;;2.47;;
15192;SDS011;7697;51.630;7.484;2022-12-20T00:21:55;2.63;;;2.30;;
15192;SDS011;7697;51.630;7.484;2022-12-20T00:26:58;2.67;;;2.00;;
15192;SDS011;7697;51.630;7.484;2022-12-20T00:32:00;2.78;;;2.15;;
15192;SDS011;7697;51.630;7.484;2022-12-20T00:37:02;3.08;;;2.05;;
15192;SDS011;7697;51.630;7.484;2022-12-20T00:42:05;3.95;;;2.30;;
15192;SDS011;7697;51.630;7.484;2022-12-20T00:47:06;2.95;;;1.90;;
15192;SDS011;7697;51.630;7.484;2022-12-20T00:52:08;2.70;;;1.90;;
15192;SDS011;7697;51.630;7.484;2022-12-20T00:57:11;1.85;;;1.73;;
15192;SDS011;7697;51.630;7.484;2022-12-20T01:02:13;2.67;;;2.17;;
15192;SDS011;7697;51.630;7.484;2022-12-20T01:07:15;2.65;;;1.80;;
15192;SDS011;7697;51.630;7.484;2022-12-20T01:12:18;2.60;;;2.03;;
15192;SDS011;7697;51.630;7.484;2022-12-20T01:17:20;2.90;;;1.83;;
15192;SDS011;7697;51.630;7.484;2022-12-20T01:22:21;4.10;;;2.03;;
15192;SDS011;7697;51.630;7.484;2022-12-20T01:27:24;4.32;;;2.63;;
15192;SDS011;7697;51.630;7.484;2022-12-20T01:32:26;2.33;;;1.73;;
15192;SDS011;7697;51.630;7.484;2022-12-20T01:37:27;2.75;;;2.05;;
15192;SDS011;7697;51.630;7.484;2022-12-20T01:42:31;2.38;;;1.80;;
15192;SDS011;7697;51.630;7.484;2022-12-20T01:47:32;2.85;;;2.03;;
15192;SDS011;7697;51.630;7.484;2022-12-20T01:52:37;2.97;;;2.00;;
15192;SDS011;7697;51.630;7.484;2022-12-20T01:57:43;1.90;;;1.70;;
15192;SDS011;7697;51.630;7.484;2022-12-20T02:02:48;2.08;;;1.88;;
15192;SDS011;7697;51.630;7.484;2022-12-20T02:07:51;3.08;;;1.90;;
15192;SDS011;7697;51.630;7.484;2022-12-20T02:13:00;2.63;;;1.95;;
15192;SDS011;7697;51.630;7.484;2022-12-20T02:18:14;2.88;;;1.88;;
15192;SDS011;7697;51.630;7.484;2022-12-20T02:29:09;2.08;;;1.80;;
15192;SDS011;7697;51.630;7.484;2022-12-20T02:34:20;4.38;;;2.20;;
15192;SDS011;7697;51.630;7.484;2022-12-20T02:39:25;2.20;;;2.00;;
15192;SDS011;7697;51.630;7.484;2022-12-20T02:44:29;3.88;;;2.20;;
15192;SDS011;7697;51.630;7.484;2022-12-20T02:49:54;2.40;;;2.00;;
15192;SDS011;7697;51.630;7.484;2022-12-20T02:54:57;2.95;;;1.95;;
15192;SDS011;7697;51.630;7.484;2022-12-20T03:00:02;2.95;;;1.85;;
15192;SDS011;7697;51.630;7.484;2022-12-20T03:05:07;1.95;;;1.75;;
15192;SDS011;7697;51.630;7.484;2022-12-20T03:10:09;2.00;;;1.80;;
15192;SDS011;7697;51.630;7.484;2022-12-20T03:15:11;2.58;;;1.83;;
15192;SDS011;7697;51.630;7.484;2022-12-20T03:20:15;3.20;;;2.00;;
15192;SDS011;7697;51.630;7.484;2022-12-20T03:25:16;2.65;;;2.20;;
15192;SDS011;7697;51.630;7.484;2022-12-20T03:30:18;2.30;;;2.10;;
15192;SDS011;7697;51.630;7.484;2022-12-20T03:35:21;5.32;;;2.53;;
15192;SDS011;7697;51.630;7.484;2022-12-20T03:40:23;3.60;;;2.30;;
15192;SDS011;7697;51.630;7.484;2022-12-20T03:45:25;2.67;;;2.25;;
15192;SDS011;7697;51.630;7.484;2022-12-20T03:50:28;3.28;;;2.13;;
15192;SDS011;7697;51.630;7.484;2022-12-20T03:55:30;2.75;;;2.38;;
15192;SDS011;7697;51.630;7.484;2022-12-20T04:00:32;2.33;;;2.00;;
15192;SDS011;7697;51.630;7.484;2022-12-20T04:05:35;2.58;;;2.10;;
15192;SDS011;7697;51.630;7.484;2022-12-20T04:10:37;3.75;;;2.30;;
15192;SDS011;7697;51.630;7.484;2022-12-20T04:15:59;5.50;;;2.70;;
15192;SDS011;7697;51.630;7.484;2022-12-20T04:21:02;3.30;;;2.53;;
15192;SDS011;7697;51.630;7.484;2022-12-20T04:26:06;5.40;;;2.90;;
15192;SDS011;7697;51.630;7.484;2022-12-20T04:31:09;5.40;;;2.67;;
15192;SDS011;7697;51.630;7.484;2022-12-20T04:36:13;3.40;;;2.10;;
15192;SDS011;7697;51.630;7.484;2022-12-20T04:41:15;2.58;;;2.20;;
15192;SDS011;7697;51.630;7.484;2022-12-20T04:46:22;3.97;;;2.50;;
15192;SDS011;7697;51.630;7.484;2022-12-20T04:51:26;4.38;;;2.17;;
15192;SDS011;7697;51.630;7.484;2022-12-20T04:56:28;2.80;;;2.22;;
15192;SDS011;7697;51.630;7.484;2022-12-20T05:01:30;2.92;;;2.30;;
15192;SDS011;7697;51.630;7.484;2022-12-20T05:06:33;4.65;;;2.25;;
15192;SDS011;7697;51.630;7.484;2022-12-20T05:11:34;4.03;;;2.20;;
15192;SDS011;7697;51.630;7.484;2022-12-20T05:16:36;4.47;;;2.40;;
15192;SDS011;7697;51.630;7.484;2022-12-20T05:21:39;4.85;;;2.67;;
15192;SDS011;7697;51.630;7.484;2022-12-20T05:26:58;4.35;;;2.65;;
15192;SDS011;7697;51.630;7.484;2022-12-20T05:32:00;6.43;;;2.70;;
15192;SDS011;7697;51.630;7.484;2022-12-20T05:37:03;4.30;;;2.63;;
15192;SDS011;7697;51.630;7.484;2022-12-20T05:42:05;5.00;;;2.60;;
15192;SDS011;7697;51.630;7.484;2022-12-20T05:47:07;4.35;;;2.80;;
15192;SDS011;7697;51.630;7.484;2022-12-20T05:52:10;4.97;;;2.83;;
15192;SDS011;7697;51.630;7.484;2022-12-20T05:57:12;5.10;;;2.60;;
15192;SDS011;7697;51.630;7.484;2022-12-20T06:02:15;3.13;;;2.30;;
15192;SDS011;7697;51.630;7.484;2022-12-20T06:07:18;3.28;;;2.20;;
15192;SDS011;7697;51.630;7.484;2022-12-20T06:12:20;3.13;;;2.40;;
15192;SDS011;7697;51.630;7.484;2022-12-20T06:17:22;2.88;;;2.60;;
15192;SDS011;7697;51.630;7.484;2022-12-20T06:22:25;3.85;;;2.63;;
15192;SDS011;7697;51.630;7.484;2022-12-20T06:27:27;2.45;;;2.13;;
15192;SDS011;7697;51.630;7.484;2022-12-20T06:32:29;2.50;;;2.30;;
15192;SDS011;7697;51.630;7.484;2022-12-20T06:37:32;3.63;;;2.70;;
15192;SDS011;7697;51.630;7.484;2022-12-20T06:42:35;3.63;;;2.60;;
15192;SDS011;7697;51.630;7.484;2022-12-20T06:47:37;3.08;;;2.20;;
15192;SDS011;7697;51.630;7.484;2022-12-20T06:52:40;4.05;;;2.40;;
15192;SDS011;7697;51.630;7.484;2022-12-20T06:57:41;3.25;;;2.50;;
15192;SDS011;7697;51.630;7.484;2022-12-20T07:02:43;3.67;;;2.47;;
15192;SDS011;7697;51.630;7.484;2022-12-20T07:07:46;3.97;;;2.40;;
15192;SDS011;7697;51.630;7.484;2022-12-20T07:12:49;3.03;;;2.10;;
15192;SDS011;7697;51.630;7.484;2022-12-20T07:17:52;3.95;;;2.40;;
15192;SDS011;7697;51.630;7.484;2022-12-20T07:22:55;3.60;;;2.20;;
15192;SDS011;7697;51.630;7.484;2022-12-20T07:27:56;2.53;;;2.03;;
15192;SDS011;7697;51.630;7.484;2022-12-20T07:32:58;4.82;;;2.70;;
15192;SDS011;7697;51.630;7.484;2022-12-20T07:38:01;3.22;;;2.67;;
15192;SDS011;7697;51.630;7.484;2022-12-20T07:43:03;3.20;;;2.28;;
15192;SDS011;7697;51.630;7.484;2022-12-20T07:48:05;2.55;;;2.00;;
15192;SDS011;7697;51.630;7.484;2022-12-20T07:53:08;2.80;;;2.10;;
15192;SDS011;7697;51.630;7.484;2022-12-20T07:58:11;2.25;;;2.00;;
15192;SDS011;7697;51.630;7.484;2022-12-20T08:03:14;2.42;;;2.00;;
15192;SDS011;7697;51.630;7.484;2022-12-20T08:08:21;4.05;;;2.28;;
15192;SDS011;7697;51.630;7.484;2022-12-20T08:13:23;2.50;;;2.00;;
15192;SDS011;7697;51.630;7.484;2022-12-20T08:18:24;5.50;;;2.10;;
15192;SDS011;7697;51.630;7.484;2022-12-20T08:23:27;4.70;;;2.47;;
15192;SDS011;7697;51.630;7.484;2022-12-20T08:28:29;2.40;;;1.90;;
15192;SDS011;7697;51.630;7.484;2022-12-20T08:33:31;3.45;;;2.17;;
15192;SDS011;7697;51.630;7.484;2022-12-20T08:38:35;4.35;;;2.00;;
15192;SDS011;7697;51.630;7.484;2022-12-20T08:43:38;4.13;;;2.08;;
15192;SDS011;7697;51.630;7.484;2022-12-20T08:48:40;3.30;;;2.08;;
15192;SDS011;7697;51.630;7.484;2022-12-20T08:53:43;2.78;;;2.00;;
15192;SDS011;7697;51.630;7.484;2022-12-20T08:58:45;3.15;;;1.98;;
15192;SDS011;7697;51.630;7.484;2022-12-20T09:03:47;3.28;;;2.00;;
15192;SDS011;7697;51.630;7.484;2022-12-20T09:08:51;2.97;;;2.08;;
15192;SDS011;7697;51.630;7.484;2022-12-20T09:13:55;3.72;;;2.13;;
15192;SDS011;7697;51.630;7.484;2022-12-20T09:18:58;4.57;;;2.00;;
15192;SDS011;7697;51.630;7.484;2022-12-20T09:24:03;2.53;;;1.85;;
15192;SDS011;7697;51.630;7.484;2022-12-20T09:29:05;2.35;;;1.67;;
15192;SDS011;7697;51.630;7.484;2022-12-20T09:34:07;2.97;;;2.00;;
15192;SDS011;7697;51.630;7.484;2022-12-20T09:39:11;3.83;;;2.10;;
15192;SDS011;7697;51.630;7.484;2022-12-20T09:44:13;3.45;;;1.90;;
15192;SDS011;7697;51.630;7.484;2022-12-20T09:49:19;2.53;;;1.80;;
15192;SDS011;7697;51.630;7.484;2022-12-20T09:54:32;5.15;;;2.60;;
15192;SDS011;7697;51.630;7.484;2022-12-20T09:59:37;2.97;;;2.58;;
15192;SDS011;7697;51.630;7.484;2022-12-20T10:04:42;3.70;;;2.20;;
15192;SDS011;7697;51.630;7.484;2022-12-20T10:15:20;2.30;;;1.85;;
15192;SDS011;7697;51.630;7.484;2022-12-20T10:20:31;2.55;;;1.80;;
15192;SDS011;7697;51.630;7.484;2022-12-20T10:25:43;3.15;;;1.85;;
15192;SDS011;7697;51.630;7.484;2022-12-20T10:30:48;2.67;;;1.95;;
15192;SDS011;7697;51.630;7.484;2022-12-20T10:35:50;3.42;;;2.10;;
15192;SDS011;7697;51.630;7.484;2022-12-20T10:40:58;4.40;;;2.10;;
15192;SDS011;7697;51.630;7.484;2022-12-20T10:46:04;3.05;;;2.22;;
15192;SDS011;7697;51.630;7.484;2022-12-20T10:51:12;5.93;;;3.47;;
15192;SDS011;7697;51.630;7.484;2022-12-20T10:56:16;3.15;;;2.17;;
15192;SDS011;7697;51.630;7.484;2022-12-20T11:01:23;3.45;;;1.85;;
15192;SDS011;7697;51.630;7.484;2022-12-20T11:06:28;5.18;;;2.13;;
15192;SDS011;7697;51.630;7.484;2022-12-20T11:11:44;2.63;;;1.88;;
15192;SDS011;7697;51.630;7.484;2022-12-20T11:17:00;3.60;;;2.20;;
15192;SDS011;7697;51.630;7.484;2022-12-20T11:22:08;2.42;;;1.90;;
15192;SDS011;7697;51.630;7.484;2022-12-20T11:27:20;2.35;;;1.85;;
15192;SDS011;7697;51.630;7.484;2022-12-20T11:32:37;3.30;;;2.30;;
15192;SDS011;7697;51.630;7.484;2022-12-20T11:37:54;2.05;;;1.83;;
15192;SDS011;7697;51.630;7.484;2022-12-20T11:43:21;4.28;;;1.95;;
15192;SDS011;7697;51.630;7.484;2022-12-20T11:48:36;2.53;;;1.73;;
15192;SDS011;7697;51.630;7.484;2022-12-20T11:53:48;2.95;;;1.83;;
15192;SDS011;7697;51.630;7.484;2022-12-20T11:58:54;2.58;;;1.77;;
15192;SDS011;7697;51.630;7.484;2022-12-20T12:04:04;2.47;;;1.80;;
15192;SDS011;7697;51.630;7.484;2022-12-20T12:09:14;5.72;;;2.10;;
15192;SDS011;7697;51.630;7.484;2022-12-20T12:14:27;4.07;;;2.00;;
15192;SDS011;7697;51.630;7.484;2022-12-20T12:19:41;3.20;;;1.67;;
15192;SDS011;7697;51.630;7.484;2022-12-20T12:24:47;3.63;;;2.10;;
15192;SDS011;7697;51.630;7.484;2022-12-20T12:29:54;2.33;;;1.90;;
15192;SDS011;7697;51.630;7.484;2022-12-20T12:35:12;3.45;;;1.70;;
15192;SDS011;7697;51.630;7.484;2022-12-20T12:46:12;2.95;;;1.77;;
15192;SDS011;7697;51.630;7.484;2022-12-20T12:51:20;2.17;;;1.65;;
15192;SDS011;7697;51.630;7.484;2022-12-20T12:56:36;2.63;;;2.00;;
15192;SDS011;7697;51.630;7.484;2022-12-20T13:01:50;2.83;;;2.20;;
15192;SDS011;7697;51.630;7.484;2022-12-20T13:06:56;1.77;;;1.45;;
15192;SDS011;7697;51.630;7.484;2022-12-20T13:17:49;2.55;;;1.63;;
15192;SDS011;7697;51.630;7.484;2022-12-20T13:23:11;2.75;;;1.80;;
15192;SDS011;7697;51.630;7.484;2022-12-20T13:33:45;3.10;;;1.60;;
15192;SDS011;7697;51.630;7.484;2022-12-20T13:38:51;3.63;;;1.80;;
15192;SDS011;7697;51.630;7.484;2022-12-20T13:43:55;2.13;;;1.70;;
15192;SDS011;7697;51.630;7.484;2022-12-20T13:49:00;3.25;;;2.05;;
15192;SDS011;7697;51.630;7.484;2022-12-20T13:54:05;4.28;;;2.60;;
15192;SDS011;7697;51.630;7.484;2022-12-20T13:59:17;2.92;;;2.60;;
15192;SDS011;7697;51.630;7.484;2022-12-20T14:04:36;4.82;;;3.13;;
15192;SDS011;7697;51.630;7.484;2022-12-20T14:09:44;5.43;;;2.83;;
15192;SDS011;7697;51.630;7.484;2022-12-20T14:14:47;4.53;;;2.97;;
15192;SDS011;7697;51.630;7.484;2022-12-20T14:20:01;2.35;;;2.05;;
15192;SDS011;7697;51.630;7.484;2022-12-20T14:25:10;3.85;;;2.47;;
15192;SDS011;7697;51.630;7.484;2022-12-20T14:30:28;3.88;;;2.88;;
15192;SDS011;7697;51.630;7.484;2022-12-20T14:35:35;4.85;;;3.22;;
15192;SDS011;7697;51.630;7.484;2022-12-20T14:40:40;3.80;;;2.90;;
15192;SDS011;7697;51.630;7.484;2022-12-20T14:45:42;3.63;;;2.78;;
15192;SDS011;7697;51.630;7.484;2022-12-20T14:50:51;3.10;;;2.60;;
15192;SDS011;7697;51.630;7.484;2022-12-20T14:55:55;3.80;;;2.28;;
15192;SDS011;7697;51.630;7.484;2022-12-20T15:01:00;3.08;;;2.30;;
15192;SDS011;7697;51.630;7.484;2022-12-20T15:06:30;3.03;;;2.55;;
15192;SDS011;7697;51.630;7.484;2022-12-20T15:11:42;2.63;;;2.30;;
15192;SDS011;7697;51.630;7.484;2022-12-20T15:16:47;2.63;;;2.00;;
15192;SDS011;7697;51.630;7.484;2022-12-20T15:21:57;3.72;;;2.35;;
15192;SDS011;7697;51.630;7.484;2022-12-20T15:27:05;4.57;;;2.10;;
15192;SDS011;7697;51.630;7.484;2022-12-20T15:32:13;3.78;;;2.78;;
15192;SDS011;7697;51.630;7.484;2022-12-20T15:37:18;2.95;;;2.33;;
15192;SDS011;7697;51.630;7.484;2022-12-20T15:42:31;4.00;;;2.72;;
15192;SDS011;7697;51.630;7.484;2022-12-20T15:47:33;3.05;;;2.45;;
15192;SDS011;7697;51.630;7.484;2022-12-20T15:52:35;4.30;;;3.00;;
15192;SDS011;7697;51.630;7.484;2022-12-20T15:57:42;2.97;;;2.47;;
15192;SDS011;7697;51.630;7.484;2022-12-20T16:02:43;3.25;;;2.50;;
15192;SDS011;7697;51.630;7.484;2022-12-20T16:07:50;4.68;;;2.72;;
15192;SDS011;7697;51.630;7.484;2022-12-20T16:12:53;5.25;;;4.72;;
15192;SDS011;7697;51.630;7.484;2022-12-20T16:17:55;4.15;;;2.95;;
15192;SDS011;7697;51.630;7.484;2022-12-20T16:22:57;5.15;;;2.80;;
15192;SDS011;7697;51.630;7.484;2022-12-20T16:28:00;3.78;;;2.75;;
15192;SDS011;7697;51.630;7.484;2022-12-20T16:33:02;4.20;;;2.80;;
15192;SDS011;7697;51.630;7.484;2022-12-20T16:38:04;5.07;;;2.97;;
15192;SDS011;7697;51.630;7.484;2022-12-20T16:43:10;5.03;;;3.03;;
15192;SDS011;7697;51.630;7.484;2022-12-20T16:48:14;5.07;;;3.05;;
15192;SDS011;7697;51.630;7.484;2022-12-20T16:53:16;4.85;;;3.13;;
15192;SDS011;7697;51.630;7.484;2022-12-20T16:58:19;3.42;;;2.85;;
15192;SDS011;7697;51.630;7.484;2022-12-20T17:03:22;3.65;;;2.92;;
15192;SDS011;7697;51.630;7.484;2022-12-20T17:08:23;3.38;;;2.75;;
15192;SDS011;7697;51.630;7.484;2022-12-20T17:13:26;4.03;;;2.45;;
15192;SDS011;7697;51.630;7.484;2022-12-20T17:18:28;3.10;;;2.38;;
15192;SDS011;7697;51.630;7.484;2022-12-20T17:23:30;3.85;;;2.85;;
15192;SDS011;7697;51.630;7.484;2022-12-20T17:28:38;3.95;;;2.70;;
15192;SDS011;7697;51.630;7.484;2022-12-20T17:33:39;6.10;;;3.17;;
15192;SDS011;7697;51.630;7.484;2022-12-20T17:38:41;4.65;;;2.90;;
15192;SDS011;7697;51.630;7.484;2022-12-20T17:43:44;5.05;;;3.20;;
15192;SDS011;7697;51.630;7.484;2022-12-20T17:48:46;4.95;;;3.53;;
15192;SDS011;7697;51.630;7.484;2022-12-20T17:53:48;4.55;;;3.10;;
15192;SDS011;7697;51.630;7.484;2022-12-20T17:58:52;5.53;;;3.05;;
15192;SDS011;7697;51.630;7.484;2022-12-20T18:03:56;3.33;;;2.50;;
15192;SDS011;7697;51.630;7.484;2022-12-20T18:08:59;3.65;;;2.55;;
15192;SDS011;7697;51.630;7.484;2022-12-20T18:14:02;5.93;;;2.90;;
15192;SDS011;7697;51.630;7.484;2022-12-20T18:19:04;3.88;;;2.88;;
15192;SDS011;7697;51.630;7.484;2022-12-20T18:24:08;5.80;;;3.38;;
15192;SDS011;7697;51.630;7.484;2022-12-20T18:29:12;6.03;;;3.75;;
15192;SDS011;7697;51.630;7.484;2022-12-20T18:34:14;3.67;;;3.03;;
15192;SDS011;7697;51.630;7.484;2022-12-20T18:39:16;5.43;;;4.10;;
15192;SDS011;7697;51.630;7.484;2022-12-20T18:44:20;4.32;;;3.13;;
15192;SDS011;7697;51.630;7.484;2022-12-20T18:49:21;4.95;;;3.40;;
15192;SDS011;7697;51.630;7.484;2022-12-20T18:54:23;3.95;;;3.30;;
15192;SDS011;7697;51.630;7.484;2022-12-20T18:59:26;3.88;;;3.22;;
15192;SDS011;7697;51.630;7.484;2022-12-20T19:04:28;4.82;;;3.92;;
15192;SDS011;7697;51.630;7.484;2022-12-20T19:09:29;5.43;;;4.20;;
15192;SDS011;7697;51.630;7.484;2022-12-20T19:14:32;8.88;;;4.85;;
15192;SDS011;7697;51.630;7.484;2022-12-20T19:19:34;5.68;;;4.32;;
15192;SDS011;7697;51.630;7.484;2022-12-20T19:24:36;5.43;;;3.70;;
15192;SDS011;7697;51.630;7.484;2022-12-20T19:29:39;4.57;;;3.72;;
15192;SDS011;7697;51.630;7.484;2022-12-20T19:34:40;4.22;;;3.83;;
15192;SDS011;7697;51.630;7.484;2022-12-20T19:39:42;4.97;;;3.65;;
15192;SDS011;7697;51.630;7.484;2022-12-20T19:44:45;4.85;;;3.17;;
15192;SDS011;7697;51.630;7.484;2022-12-20T19:49:47;4.05;;;2.80;;
15192;SDS011;7697;51.630;7.484;2022-12-20T19:54:48;5.50;;;3.53;;
15192;SDS011;7697;51.630;7.484;2022-12-20T19:59:51;6.68;;;4.50;;
15192;SDS011;7697;51.630;7.484;2022-12-20T20:04:53;7.60;;;4.80;;
15192;SDS011;7697;51.630;7.484;2022-12-20T20:09:55;5.68;;;4.20;;
15192;SDS011;7697;51.630;7.484;2022-12-20T20:14:58;5.03;;;3.58;;
15192;SDS011;7697;51.630;7.484;2022-12-20T20:20:00;5.40;;;3.85;;
15192;SDS011;7697;51.630;7.484;2022-12-20T20:25:01;7.13;;;4.65;;
15192;SDS011;7697;51.630;7.484;2022-12-20T20:30:05;7.28;;;3.92;;
15192;SDS011;7697;51.630;7.484;2022-12-20T20:35:10;5.35;;;4.57;;
15192;SDS011;7697;51.630;7.484;2022-12-20T20:40:11;6.45;;;4.47;;
15192;SDS011;7697;51.630;7.484;2022-12-20T20:45:16;5.93;;;4.68;;
15192;SDS011;7697;51.630;7.484;2022-12-20T20:50:17;4.90;;;4.07;;
15192;SDS011;7697;51.630;7.484;2022-12-20T20:55:20;4.35;;;3.60;;
15192;SDS011;7697;51.630;7.484;2022-12-20T21:00:23;4.18;;;3.78;;
15192;SDS011;7697;51.630;7.484;2022-12-20T21:05:25;4.18;;;3.28;;
15192;SDS011;7697;51.630;7.484;2022-12-20T21:10:27;5.53;;;3.45;;
15192;SDS011;7697;51.630;7.484;2022-12-20T21:15:31;5.00;;;3.42;;
15192;SDS011;7697;51.630;7.484;2022-12-20T21:20:33;3.70;;;3.20;;
15192;SDS011;7697;51.630;7.484;2022-12-20T21:25:35;5.03;;;4.03;;
15192;SDS011;7697;51.630;7.484;2022-12-20T21:30:39;8.57;;;5.00;;
15192;SDS011;7697;51.630;7.484;2022-12-20T21:35:40;7.38;;;4.68;;
15192;SDS011;7697;51.630;7.484;2022-12-20T21:40:42;4.53;;;4.00;;
15192;SDS011;7697;51.630;7.484;2022-12-20T21:45:49;7.65;;;4.57;;
15192;SDS011;7697;51.630;7.484;2022-12-20T21:50:57;5.07;;;3.92;;
15192;SDS011;7697;51.630;7.484;2022-12-20T21:56:00;7.57;;;5.28;;
15192;SDS011;7697;51.630;7.484;2022-12-20T22:01:04;6.20;;;4.10;;
15192;SDS011;7697;51.630;7.484;2022-12-20T22:06:06;4.38;;;3.83;;
15192;SDS011;7697;51.630;7.484;2022-12-20T22:11:09;4.53;;;3.38;;
15192;SDS011;7697;51.630;7.484;2022-12-20T22:16:14;4.75;;;3.50;;
15192;SDS011;7697;51.630;7.484;2022-12-20T22:21:17;3.70;;;3.40;;
15192;SDS011;7697;51.630;7.484;2022-12-20T22:26:21;5.18;;;3.42;;
15192;SDS011;7697;51.630;7.484;2022-12-20T22:31:25;3.85;;;3.42;;
15192;SDS011;7697;51.630;7.484;2022-12-20T22:36:27;3.00;;;2.80;;
15192;SDS011;7697;51.630;7.484;2022-12-20T22:41:30;4.82;;;3.70;;
15192;SDS011;7697;51.630;7.484;2022-12-20T22:46:35;5.82;;;3.78;;
15192;SDS011;7697;51.630;7.484;2022-12-20T22:51:36;3.80;;;3.50;;
15192;SDS011;7697;51.630;7.484;2022-12-20T22:56:38;5.45;;;4.25;;
15192;SDS011;7697;51.630;7.484;2022-12-20T23:01:41;5.00;;;4.50;;
15192;SDS011;7697;51.630;7.484;2022-12-20T23:06:43;5.20;;;4.70;;
15192;SDS011;7697;51.630;7.484;2022-12-20T23:11:44;6.68;;;4.68;;
15192;SDS011;7697;51.630;7.484;2022-12-20T23:17:07;5.95;;;5.35;;
15192;SDS011;7697;51.630;7.484;2022-12-20T23:22:10;5.13;;;4.63;;
15192;SDS011;7697;51.630;7.484;2022-12-20T23:27:29;8.20;;;5.50;;
15192;SDS011;7697;51.630;7.484;2022-12-20T23:32:32;4.70;;;4.30;;
15192;SDS011;7697;51.630;7.484;2022-12-20T23:37:34;7.35;;;6.60;;
15192;SDS011;7697;51.630;7.484;2022-12-20T23:42:35;5.70;;;5.20;;
15192;SDS011;7697;51.630;7.484;2022-12-20T23:47:38;6.03;;;5.43;;
15192;SDS011;7697;51.630;7.484;2022-12-20T23:52:40;6.78;;;6.03;;
15192;SDS011;7697;51.630;7.484;2022-12-20T23:57:42;7.50;;;6.65;;
